Time;durP1;ratioP1;P1;durP2;ratioP2;P2;SDS_P1;SDS_P2;PMS_P1;PMS_P2;Temp;Humidity;BMP_temperature;BMP_pressure;BME280_temperature;BME280_humidity;BME280_pressure;Samples;Min_cycle;Max_cycle;Signal;HPM_P1;HPM_P2
2023/01/30 00:00:38;;;;;;;17.33;12.03;;;;;;;;;;5062290;28;20233;-90
2023/01/30 00:03:07;;;;;;;18.07;11.50;;;;;;;;;;5057743;28;20223;-89
2023/01/30 00:05:34;;;;;;;17.07;11.97;;;;;;;;;;5056400;28;20248;-90
2023/01/30 00:08:01;;;;;;;19.23;10.13;;;;;;;;;;5056765;28;20220;-90
2023/01/30 00:10:28;;;;;;;16.80;11.60;;;;;;;;;;5055924;28;20233;-90
2023/01/30 00:12:55;;;;;;;18.03;11.30;;;;;;;;;;5056229;28;20209;-90
2023/01/30 00:15:22;;;;;;;21.80;11.60;;;;;;;;;;5056009;28;20240;-90
2023/01/30 00:17:49;;;;;;;15.23;10.20;;;;;;;;;;5056472;28;20308;-90
2023/01/30 00:20:18;;;;;;;11.80;9.03;;;;;;;;;;5055702;28;20239;-90
2023/01/30 00:22:45;;;;;;;9.13;6.43;;;;;;;;;;5055640;28;20573;-90
2023/01/30 00:25:12;;;;;;;20.10;10.80;;;;;;;;;;5054678;28;20241;-90
2023/01/30 00:27:39;;;;;;;16.93;11.43;;;;;;;;;;5056265;28;20216;-92
2023/01/30 00:30:07;;;;;;;15.10;10.83;;;;;;;;;;5055775;28;20241;-90
2023/01/30 00:32:34;;;;;;;16.20;11.10;;;;;;;;;;5055389;28;20654;-91
2023/01/30 00:35:01;;;;;;;15.97;9.67;;;;;;;;;;5055064;28;20245;-92
2023/01/30 00:37:29;;;;;;;11.87;8.80;;;;;;;;;;5056063;28;20217;-92
2023/01/30 00:39:56;;;;;;;14.90;9.83;;;;;;;;;;5055203;28;20233;-91
2023/01/30 00:47:55;;;;;;;13.57;9.83;;;;;;;;;;5056264;28;20185;-92
2023/01/30 00:50:22;;;;;;;12.63;9.80;;;;;;;;;;5055172;28;20233;-91
2023/01/30 00:52:51;;;;;;;12.10;8.30;;;;;;;;;;5055468;28;20210;-90
2023/01/30 00:55:18;;;;;;;10.57;8.23;;;;;;;;;;5054406;28;20233;-90
2023/01/30 00:57:45;;;;;;;9.70;7.00;;;;;;;;;;5055372;28;20276;-90
2023/01/30 01:00:13;;;;;;;13.87;10.57;;;;;;;;;;5055088;28;20256;-90
2023/01/30 01:02:40;;;;;;;15.73;9.70;;;;;;;;;;5055602;28;20209;-91
2023/01/30 01:05:07;;;;;;;8.90;6.73;;;;;;;;;;5054550;28;20229;-91
2023/01/30 01:07:34;;;;;;;13.63;10.10;;;;;;;;;;5055119;28;20215;-92
2023/01/30 01:10:02;;;;;;;16.53;10.83;;;;;;;;;;5055901;28;20575;-91
2023/01/30 01:12:29;;;;;;;16.40;11.57;;;;;;;;;;5055160;28;20210;-92
2023/01/30 01:14:56;;;;;;;11.47;8.07;;;;;;;;;;5054816;28;20234;-92
2023/01/30 01:17:24;;;;;;;17.43;11.40;;;;;;;;;;5055142;28;20207;-91
2023/01/30 01:19:51;;;;;;;12.77;8.37;;;;;;;;;;5054416;28;20613;-91
2023/01/30 01:22:18;;;;;;;13.90;9.13;;;;;;;;;;5054051;28;20214;-91
2023/01/30 01:24:45;;;;;;;16.70;11.93;;;;;;;;;;5055118;28;20244;-91
2023/01/30 01:27:13;;;;;;;12.23;8.43;;;;;;;;;;5055106;28;20205;-90
2023/01/30 01:29:40;;;;;;;14.43;10.73;;;;;;;;;;5054773;28;20221;-91
2023/01/30 01:32:07;;;;;;;17.07;12.00;;;;;;;;;;5054764;28;20213;-91
2023/01/30 01:34:34;;;;;;;7.00;5.80;;;;;;;;;;5054145;28;20233;-91
2023/01/30 01:37:01;;;;;;;6.03;5.10;;;;;;;;;;5054590;28;20206;-91
2023/01/30 01:41:00;;;;;;;11.10;7.30;;;;;;;;;;5053766;28;20226;-91
2023/01/30 01:42:16;;;;;;;14.27;9.67;;;;;;;;;;5054801;28;20830;-91
2023/01/30 01:45:01;;;;;;;16.23;11.67;;;;;;;;;;5054030;28;20763;-91
2023/01/30 01:47:29;;;;;;;16.80;11.20;;;;;;;;;;5054498;28;20212;-92
2023/01/30 01:49:56;;;;;;;14.97;8.63;;;;;;;;;;5053523;28;20244;-91
2023/01/30 01:52:23;;;;;;;18.23;11.17;;;;;;;;;;5052954;28;20205;-91
2023/01/30 01:54:52;;;;;;;18.70;12.00;;;;;;;;;;5053455;28;20710;-92
2023/01/30 01:57:22;;;;;;;16.60;11.07;;;;;;;;;;5054482;28;20194;-91
2023/01/30 01:59:50;;;;;;;11.43;6.93;;;;;;;;;;5053866;28;20244;-91
2023/01/30 02:02:18;;;;;;;17.63;12.37;;;;;;;;;;5054569;28;20212;-92
2023/01/30 02:05:02;;;;;;;12.07;9.20;;;;;;;;;;5053592;28;20249;-92
2023/01/30 02:07:30;;;;;;;10.63;7.33;;;;;;;;;;5054045;28;20229;-91
2023/01/30 02:09:57;;;;;;;13.07;6.73;;;;;;;;;;5051227;28;20244;-91
2023/01/30 02:12:26;;;;;;;11.40;8.20;;;;;;;;;;5053814;28;20208;-91
2023/01/30 02:14:54;;;;;;;13.80;9.90;;;;;;;;;;5053336;28;20241;-92
2023/01/30 02:17:21;;;;;;;5.87;5.27;;;;;;;;;;5070234;28;20219;-92
2023/01/30 02:19:51;;;;;;;18.60;12.33;;;;;;;;;;5073654;28;20252;-92
2023/01/30 02:22:43;;;;;;;11.03;6.80;;;;;;;;;;5073747;28;20197;-92
2023/01/30 02:25:34;;;;;;;8.63;6.13;;;;;;;;;;5073576;28;20259;-91
2023/01/30 02:28:18;;;;;;;11.63;6.47;;;;;;;;;;5074110;28;20219;-92
2023/01/30 02:31:02;;;;;;;9.53;7.23;;;;;;;;;;5073550;28;20239;-92
2023/01/30 02:33:35;;;;;;;12.47;9.50;;;;;;;;;;5072751;28;20209;-91
2023/01/30 02:36:06;;;;;;;16.13;10.90;;;;;;;;;;5028939;22;20596;-85
2023/01/30 02:38:39;;;;;;;10.83;7.67;;;;;;;;;;4990182;28;20192;-85
2023/01/30 02:41:12;;;;;;;11.93;9.17;;;;;;;;;;4989045;28;20250;-85
2023/01/30 02:43:41;;;;;;;9.77;7.53;;;;;;;;;;4990368;28;20219;-85
2023/01/30 02:46:12;;;;;;;16.97;12.80;;;;;;;;;;4989542;28;20765;-85
2023/01/30 02:48:41;;;;;;;17.87;11.90;;;;;;;;;;4989523;28;20229;-85
2023/01/30 02:51:12;;;;;;;15.80;10.97;;;;;;;;;;4988617;28;20322;-85
2023/01/30 02:53:39;;;;;;;13.10;8.20;;;;;;;;;;4989313;28;20195;-85
2023/01/30 02:56:07;;;;;;;16.83;10.57;;;;;;;;;;4988504;28;20242;-85
2023/01/30 02:58:45;;;;;;;15.60;9.47;;;;;;;;;;4989363;28;20250;-84
2023/01/30 03:01:22;;;;;;;11.37;8.10;;;;;;;;;;4988539;28;20235;-85
2023/01/30 03:03:59;;;;;;;18.87;10.33;;;;;;;;;;4991121;28;20222;-85
2023/01/30 03:06:32;;;;;;;15.73;9.53;;;;;;;;;;4992573;28;20230;-85
2023/01/30 03:09:04;;;;;;;14.23;9.30;;;;;;;;;;4983816;28;20200;-85
2023/01/30 03:11:39;;;;;;;11.77;8.00;;;;;;;;;;4992592;28;20212;-85
2023/01/30 03:14:10;;;;;;;14.77;10.43;;;;;;;;;;4991802;28;20682;-86
2023/01/30 03:16:39;;;;;;;15.30;10.63;;;;;;;;;;4992601;28;20702;-85
2023/01/30 03:19:10;;;;;;;16.80;11.57;;;;;;;;;;4991440;28;20207;-86
2023/01/30 03:21:40;;;;;;;15.37;11.40;;;;;;;;;;4992501;28;20203;-86
2023/01/30 03:24:08;;;;;;;15.23;10.17;;;;;;;;;;4991846;28;20200;-86
2023/01/30 03:26:36;;;;;;;15.00;11.13;;;;;;;;;;4992256;28;20223;-85
2023/01/30 03:29:03;;;;;;;16.57;9.63;;;;;;;;;;4992117;28;20580;-86
2023/01/30 03:31:30;;;;;;;14.73;10.30;;;;;;;;;;4992109;28;20238;-86
2023/01/30 03:33:59;;;;;;;15.40;10.23;;;;;;;;;;4991344;28;20208;-86
2023/01/30 03:36:26;;;;;;;11.47;7.70;;;;;;;;;;4991974;28;20223;-87
2023/01/30 03:38:53;;;;;;;13.80;9.40;;;;;;;;;;4991812;28;20680;-86
2023/01/30 03:41:20;;;;;;;9.50;6.57;;;;;;;;;;4992101;28;20581;-86
2023/01/30 03:43:47;;;;;;;12.93;9.00;;;;;;;;;;4991855;28;20228;-86
2023/01/30 03:46:14;;;;;;;16.57;10.83;;;;;;;;;;4991469;28;20255;-86
2023/01/30 03:48:41;;;;;;;15.60;10.13;;;;;;;;;;4991703;28;20220;-86
2023/01/30 03:51:10;;;;;;;17.07;11.17;;;;;;;;;;4991425;28;20235;-86
2023/01/30 03:53:37;;;;;;;14.77;9.80;;;;;;;;;;4991397;28;20204;-85
2023/01/30 03:56:04;;;;;;;19.23;12.00;;;;;;;;;;4991292;28;20250;-86
2023/01/30 03:58:31;;;;;;;14.43;9.40;;;;;;;;;;4991687;28;20204;-87
2023/01/30 04:00:58;;;;;;;14.33;10.53;;;;;;;;;;4991184;28;20239;-85
2023/01/30 04:03:25;;;;;;;12.77;9.63;;;;;;;;;;4991380;28;20200;-86
2023/01/30 04:05:52;;;;;;;18.13;11.97;;;;;;;;;;4991185;28;20240;-86
2023/01/30 04:08:21;;;;;;;12.30;7.70;;;;;;;;;;4991658;28;20215;-85
2023/01/30 04:10:48;;;;;;;14.03;9.77;;;;;;;;;;4991013;28;20236;-86
2023/01/30 04:13:15;;;;;;;13.73;9.53;;;;;;;;;;4991387;28;20211;-86
2023/01/30 04:15:42;;;;;;;19.40;13.73;;;;;;;;;;4989939;28;20243;-87
2023/01/30 04:18:09;;;;;;;17.83;12.80;;;;;;;;;;4991740;28;20211;-86
2023/01/30 04:20:37;;;;;;;15.13;10.47;;;;;;;;;;4991501;28;20232;-84
2023/01/30 04:23:04;;;;;;;16.67;11.13;;;;;;;;;;4991226;28;20212;-84
2023/01/30 04:25:33;;;;;;;16.87;11.83;;;;;;;;;;4990894;28;20240;-86
2023/01/30 04:28:00;;;;;;;17.60;11.87;;;;;;;;;;4991286;28;20290;-85
2023/01/30 04:30:27;;;;;;;16.27;11.40;;;;;;;;;;4990949;28;20317;-85
2023/01/30 04:32:54;;;;;;;16.70;10.40;;;;;;;;;;4990940;28;20228;-86
2023/01/30 04:35:21;;;;;;;18.00;11.77;;;;;;;;;;4990572;28;20236;-85
2023/01/30 04:37:48;;;;;;;19.50;11.97;;;;;;;;;;4990991;28;20204;-86
2023/01/30 04:40:15;;;;;;;15.70;10.97;;;;;;;;;;4990995;28;20239;-86
2023/01/30 04:42:43;;;;;;;15.27;10.80;;;;;;;;;;4991100;28;20235;-86
2023/01/30 04:45:11;;;;;;;21.47;14.37;;;;;;;;;;4990656;28;20700;-86
2023/01/30 04:47:38;;;;;;;17.97;12.97;;;;;;;;;;4991148;28;20207;-85
2023/01/30 04:50:05;;;;;;;16.37;12.23;;;;;;;;;;4990528;28;20251;-85
2023/01/30 04:52:32;;;;;;;10.37;9.00;;;;;;;;;;4990511;28;20227;-86
2023/01/30 04:55:00;;;;;;;18.93;12.67;;;;;;;;;;4990491;28;20251;-86
2023/01/30 04:57:27;;;;;;;13.30;9.63;;;;;;;;;;4990905;28;20219;-85
2023/01/30 04:59:55;;;;;;;16.97;12.83;;;;;;;;;;4990409;28;20236;-86
2023/01/30 05:02:22;;;;;;;18.87;12.83;;;;;;;;;;4989432;28;20216;-86
2023/01/30 05:04:50;;;;;;;14.80;10.10;;;;;;;;;;4990487;28;20240;-85
2023/01/30 05:07:17;;;;;;;11.60;7.63;;;;;;;;;;4991230;28;20267;-85
2023/01/30 05:09:44;;;;;;;16.83;11.83;;;;;;;;;;4991677;28;20236;-85
2023/01/30 05:12:11;;;;;;;20.00;13.97;;;;;;;;;;4981469;28;20232;-86
2023/01/30 05:14:40;;;;;;;22.63;14.10;;;;;;;;;;4990700;28;20273;-86
2023/01/30 05:17:08;;;;;;;14.73;10.57;;;;;;;;;;4991643;28;20220;-88
2023/01/30 05:19:36;;;;;;;13.73;9.67;;;;;;;;;;4990664;28;20234;-87
2023/01/30 05:22:03;;;;;;;19.87;14.17;;;;;;;;;;4991236;28;20329;-87
2023/01/30 05:24:30;;;;;;;20.80;13.27;;;;;;;;;;4989972;28;20259;-86
2023/01/30 05:26:57;;;;;;;19.33;12.33;;;;;;;;;;5084747;28;20219;-87
2023/01/30 05:29:24;;;;;;;20.60;14.27;;;;;;;;;;5092682;27;20232;-87
2023/01/30 05:31:51;;;;;;;9.30;7.40;;;;;;;;;;5093736;28;20225;-87
2023/01/30 05:34:20;;;;;;;16.57;10.47;;;;;;;;;;5089626;28;20242;-88
2023/01/30 05:36:47;;;;;;;19.07;12.90;;;;;;;;;;4977889;28;20201;-86
2023/01/30 05:39:14;;;;;;;15.90;11.80;;;;;;;;;;4986660;28;20244;-87
2023/01/30 05:41:41;;;;;;;15.87;10.67;;;;;;;;;;4990189;28;20558;-87
2023/01/30 05:44:08;;;;;;;16.37;11.57;;;;;;;;;;4986684;28;20201;-86
2023/01/30 05:46:35;;;;;;;17.93;12.43;;;;;;;;;;4990272;28;20205;-87
2023/01/30 05:49:03;;;;;;;17.00;12.10;;;;;;;;;;4976509;28;20227;-86
2023/01/30 05:51:31;;;;;;;20.73;13.40;;;;;;;;;;4980893;28;20231;-87
2023/01/30 05:53:58;;;;;;;16.40;10.33;;;;;;;;;;5003310;28;20200;-89
2023/01/30 05:56:25;;;;;;;12.07;9.00;;;;;;;;;;5010483;28;20200;-86
2023/01/30 05:58:53;;;;;;;16.63;12.30;;;;;;;;;;4979251;28;20197;-86
2023/01/30 06:01:20;;;;;;;18.03;12.50;;;;;;;;;;4976133;28;20203;-86
2023/01/30 06:03:47;;;;;;;15.77;10.90;;;;;;;;;;4989700;28;20745;-86
2023/01/30 06:06:14;;;;;;;17.17;12.90;;;;;;;;;;4986930;28;20247;-88
2023/01/30 06:08:43;;;;;;;11.30;9.23;;;;;;;;;;4979466;28;20203;-83
2023/01/30 06:11:11;;;;;;;18.03;11.57;;;;;;;;;;4989933;28;20248;-87
2023/01/30 06:13:38;;;;;;;18.40;13.40;;;;;;;;;;4974750;28;20217;-85
2023/01/30 06:16:05;;;;;;;16.20;11.50;;;;;;;;;;4969920;28;20255;-87
2023/01/30 06:18:33;;;;;;;14.57;11.63;;;;;;;;;;4971203;28;20605;-90
2023/01/30 06:21:00;;;;;;;11.07;7.93;;;;;;;;;;4977892;28;20235;-89
2023/01/30 06:23:27;;;;;;;15.97;12.27;;;;;;;;;;4978825;28;20213;-90
2023/01/30 06:25:56;;;;;;;17.83;11.37;;;;;;;;;;4981746;28;20328;-90
2023/01/30 06:28:23;;;;;;;12.97;8.83;;;;;;;;;;4982948;28;20212;-91
2023/01/30 06:30:51;;;;;;;9.43;8.17;;;;;;;;;;4989196;28;20251;-88
2023/01/30 06:33:18;;;;;;;22.27;13.23;;;;;;;;;;4987949;28;20240;-87
2023/01/30 06:35:45;;;;;;;15.03;10.53;;;;;;;;;;4994070;28;20300;-88
2023/01/30 06:38:13;;;;;;;17.17;12.53;;;;;;;;;;5012929;28;20214;-87
2023/01/30 06:40:40;;;;;;;14.10;9.77;;;;;;;;;;5001988;28;20610;-87
2023/01/30 06:43:08;;;;;;;15.93;10.20;;;;;;;;;;4992759;28;20570;-88
2023/01/30 06:45:36;;;;;;;16.47;10.80;;;;;;;;;;5026261;28;20258;-88
2023/01/30 06:48:03;;;;;;;14.10;8.90;;;;;;;;;;5095881;28;20204;-88
2023/01/30 06:50:30;;;;;;;14.80;12.30;;;;;;;;;;5058618;27;20738;-87
2023/01/30 06:52:58;;;;;;;15.57;10.87;;;;;;;;;;5020974;28;20643;-87
2023/01/30 06:55:27;;;;;;;15.97;11.87;;;;;;;;;;5013409;28;20241;-88
2023/01/30 06:58:01;;;;;;;13.50;9.73;;;;;;;;;;5078796;28;20207;-88
2023/01/30 07:00:30;;;;;;;18.93;11.40;;;;;;;;;;5012357;28;20238;-89
2023/01/30 07:02:57;;;;;;;16.17;10.97;;;;;;;;;;4998814;28;20257;-88
2023/01/30 07:05:24;;;;;;;17.10;11.57;;;;;;;;;;5007776;28;20635;-89
2023/01/30 07:07:51;;;;;;;15.27;10.20;;;;;;;;;;5096563;28;20204;-90
2023/01/30 07:10:18;;;;;;;12.60;8.33;;;;;;;;;;5095303;27;20236;-89
2023/01/30 07:12:46;;;;;;;17.37;11.40;;;;;;;;;;5095676;28;20224;-90
2023/01/30 07:15:13;;;;;;;13.70;8.90;;;;;;;;;;5092727;28;20633;-89
2023/01/30 07:17:42;;;;;;;12.57;9.10;;;;;;;;;;4992971;28;20215;-89
2023/01/30 07:20:10;;;;;;;9.07;6.63;;;;;;;;;;4992862;28;20236;-90
2023/01/30 07:22:37;;;;;;;12.67;8.67;;;;;;;;;;4993612;28;20216;-88
2023/01/30 07:25:05;;;;;;;15.17;9.77;;;;;;;;;;4993471;28;20592;-90
2023/01/30 07:27:32;;;;;;;13.03;9.20;;;;;;;;;;5089543;28;20314;-90
2023/01/30 07:29:59;;;;;;;12.67;10.17;;;;;;;;;;5095256;27;20244;-91
2023/01/30 07:32:26;;;;;;;12.93;9.53;;;;;;;;;;5095629;28;20221;-89
2023/01/30 07:34:55;;;;;;;12.37;9.07;;;;;;;;;;5095239;27;20240;-89
2023/01/30 07:37:22;;;;;;;10.10;7.90;;;;;;;;;;5095299;28;20205;-90
2023/01/30 07:39:49;;;;;;;11.20;9.37;;;;;;;;;;5100544;27;20243;-90
2023/01/30 07:42:16;;;;;;;12.87;9.13;;;;;;;;;;5097934;28;20205;-90
2023/01/30 07:44:43;;;;;;;15.90;11.27;;;;;;;;;;5096779;27;20239;-90
2023/01/30 07:47:10;;;;;;;11.80;8.37;;;;;;;;;;5024382;28;20204;-89
2023/01/30 07:49:37;;;;;;;16.23;10.60;;;;;;;;;;4992313;28;20235;-90
2023/01/30 07:52:06;;;;;;;15.57;10.83;;;;;;;;;;4992854;28;20235;-89
2023/01/30 07:54:33;;;;;;;15.23;10.83;;;;;;;;;;5046954;27;20247;-89
2023/01/30 07:57:00;;;;;;;13.63;10.00;;;;;;;;;;4992960;28;20208;-89
2023/01/30 07:59:27;;;;;;;15.20;11.40;;;;;;;;;;4999190;28;20246;-89
2023/01/30 08:01:55;;;;;;;15.33;11.23;;;;;;;;;;5008275;28;20216;-89
2023/01/30 08:04:22;;;;;;;13.70;9.90;;;;;;;;;;5023998;28;20242;-89
2023/01/30 08:06:56;;;;;;;14.10;9.97;;;;;;;;;;5112771;28;20204;-90
2023/01/30 08:09:27;;;;;;;12.57;10.20;;;;;;;;;;5110447;27;20243;-89
2023/01/30 08:11:54;;;;;;;11.43;8.83;;;;;;;;;;5113222;27;20235;-87
2023/01/30 08:14:25;;;;;;;13.97;9.20;;;;;;;;;;5099200;27;20242;-90
2023/01/30 08:16:52;;;;;;;12.33;9.17;;;;;;;;;;5107674;28;20208;-89
2023/01/30 08:19:19;;;;;;;15.27;11.27;;;;;;;;;;5095211;28;20270;-90
2023/01/30 08:21:46;;;;;;;11.03;8.83;;;;;;;;;;5095224;28;20213;-89
2023/01/30 08:24:13;;;;;;;11.23;7.00;;;;;;;;;;5042449;27;20240;-89
2023/01/30 08:26:42;;;;;;;11.77;7.77;;;;;;;;;;5002928;28;20668;-90
2023/01/30 08:29:09;;;;;;;11.80;8.13;;;;;;;;;;4992172;28;20215;-90
2023/01/30 08:31:36;;;;;;;19.07;11.73;;;;;;;;;;4992268;28;20212;-90
2023/01/30 08:34:03;;;;;;;12.40;8.87;;;;;;;;;;4991405;28;20215;-90
2023/01/30 08:36:30;;;;;;;12.50;9.20;;;;;;;;;;4993234;28;20208;-90
2023/01/30 08:38:58;;;;;;;18.17;11.57;;;;;;;;;;4992025;28;20212;-89
2023/01/30 08:41:27;;;;;;;7.50;6.43;;;;;;;;;;4992322;28;20200;-89
2023/01/30 08:43:55;;;;;;;17.17;11.70;;;;;;;;;;4995205;28;20291;-90
2023/01/30 08:46:22;;;;;;;13.13;8.97;;;;;;;;;;5001672;28;20208;-90
2023/01/30 08:48:49;;;;;;;12.20;9.97;;;;;;;;;;4992498;28;20185;-88
2023/01/30 08:51:16;;;;;;;14.00;9.50;;;;;;;;;;4991465;28;20236;-89
2023/01/30 08:53:44;;;;;;;13.97;10.20;;;;;;;;;;4991999;28;20235;-89
2023/01/30 08:56:11;;;;;;;15.17;11.30;;;;;;;;;;4990939;28;20251;-90
2023/01/30 08:58:38;;;;;;;10.07;7.77;;;;;;;;;;4991053;28;20479;-90
2023/01/30 09:01:07;;;;;;;13.50;10.23;;;;;;;;;;4992108;28;20243;-88
2023/01/30 09:03:35;;;;;;;11.70;9.03;;;;;;;;;;4991030;28;20212;-88
2023/01/30 09:06:02;;;;;;;13.87;9.53;;;;;;;;;;4991313;28;20235;-89
2023/01/30 09:08:29;;;;;;;13.83;10.00;;;;;;;;;;4991843;28;20219;-91
2023/01/30 09:10:58;;;;;;;7.57;6.47;;;;;;;;;;4990779;28;20244;-90
2023/01/30 09:13:25;;;;;;;14.50;11.40;;;;;;;;;;4991143;28;20711;-89
2023/01/30 09:15:52;;;;;;;13.00;9.60;;;;;;;;;;5024293;28;20244;-90
2023/01/30 09:18:21;;;;;;;10.50;8.10;;;;;;;;;;5094031;28;20203;-91
2023/01/30 09:20:48;;;;;;;14.33;10.67;;;;;;;;;;5093323;27;20236;-91
2023/01/30 09:23:15;;;;;;;12.23;9.93;;;;;;;;;;5093133;28;20238;-91
2023/01/30 09:25:42;;;;;;;16.47;10.00;;;;;;;;;;5092205;27;20251;-90
2023/01/30 09:28:09;;;;;;;13.53;9.33;;;;;;;;;;5093712;28;20208;-89
2023/01/30 09:30:36;;;;;;;12.47;9.23;;;;;;;;;;5092520;27;20228;-91
2023/01/30 09:33:03;;;;;;;9.77;7.70;;;;;;;;;;5093018;28;20217;-91
2023/01/30 09:35:32;;;;;;;13.07;9.97;;;;;;;;;;5083325;27;20240;-89
2023/01/30 09:38:00;;;;;;;11.90;8.37;;;;;;;;;;4990909;28;20224;-89
2023/01/30 09:40:28;;;;;;;9.73;8.73;;;;;;;;;;4989521;28;20323;-89
2023/01/30 09:43:19;;;;;;;10.30;7.33;;;;;;;;;;5037871;28;20201;-89
2023/01/30 09:45:51;;;;;;;9.73;7.57;;;;;;;;;;5090548;27;20249;-89
2023/01/30 09:48:21;;;;;;;12.30;9.17;;;;;;;;;;5092103;28;20208;-87
2023/01/30 09:50:54;;;;;;;9.20;6.90;;;;;;;;;;5091557;27;20282;-88
2023/01/30 09:53:25;;;;;;;9.87;7.63;;;;;;;;;;5091642;28;20440;-88
2023/01/30 09:55:53;;;;;;;9.17;7.67;;;;;;;;;;5076076;27;20259;-87
2023/01/30 09:58:21;;;;;;;11.03;9.70;;;;;;;;;;4992810;28;20219;-90
2023/01/30 10:00:49;;;;;;;11.97;8.70;;;;;;;;;;4992702;28;20285;-92
2023/01/30 10:03:18;;;;;;;11.37;8.93;;;;;;;;;;4993859;28;20564;-87
2023/01/30 10:05:47;;;;;;;8.27;7.40;;;;;;;;;;4992701;28;20259;-90
2023/01/30 10:08:21;;;;;;;9.53;8.53;;;;;;;;;;4993983;28;20219;-92
2023/01/30 10:10:49;;;;;;;12.20;9.17;;;;;;;;;;4993360;28;20248;-92
2023/01/30 10:13:27;;;;;;;9.63;7.70;;;;;;;;;;4993155;28;20497;-90
2023/01/30 10:15:58;;;;;;;10.50;8.03;;;;;;;;;;5000319;28;20765;-89
2023/01/30 10:18:32;;;;;;;9.03;7.27;;;;;;;;;;5097543;28;20192;-89
2023/01/30 10:21:05;;;;;;;7.37;6.50;;;;;;;;;;5096487;28;20241;-90
2023/01/30 10:23:43;;;;;;;7.50;5.80;;;;;;;;;;5097628;28;20189;-89
2023/01/30 10:26:11;;;;;;;8.60;6.50;;;;;;;;;;5095395;27;20243;-88
2023/01/30 10:28:40;;;;;;;6.90;6.23;;;;;;;;;;5011265;28;20273;-87
2023/01/30 10:31:10;;;;;;;8.43;6.07;;;;;;;;;;5006580;28;20224;-89
2023/01/30 10:33:43;;;;;;;7.00;6.30;;;;;;;;;;5095611;28;20225;-88
2023/01/30 10:36:12;;;;;;;5.87;5.27;;;;;;;;;;5086484;27;20240;-87
2023/01/30 10:38:44;;;;;;;6.83;6.13;;;;;;;;;;4992887;28;20591;-87
2023/01/30 10:41:18;;;;;;;7.00;5.90;;;;;;;;;;4992500;28;20231;-89
2023/01/30 10:43:46;;;;;;;7.93;7.10;;;;;;;;;;4982320;28;20225;-89
2023/01/30 10:46:20;;;;;;;8.07;6.03;;;;;;;;;;5089385;28;20247;-90
2023/01/30 10:48:53;;;;;;;8.27;7.47;;;;;;;;;;4992910;28;20237;-87
2023/01/30 10:51:25;;;;;;;5.60;4.80;;;;;;;;;;4992979;28;20216;-88
2023/01/30 10:53:58;;;;;;;7.73;6.63;;;;;;;;;;4991680;28;20699;-89
2023/01/30 10:56:31;;;;;;;6.63;6.03;;;;;;;;;;5010062;28;20201;-89
2023/01/30 10:59:03;;;;;;;4.77;4.07;;;;;;;;;;5054589;27;20197;-90
2023/01/30 11:01:32;;;;;;;8.73;6.00;;;;;;;;;;5095485;28;20201;-88
2023/01/30 11:04:14;;;;;;;6.33;5.63;;;;;;;;;;5094821;27;20212;-90
2023/01/30 11:06:42;;;;;;;6.90;5.73;;;;;;;;;;4999162;28;20204;-89
2023/01/30 11:09:11;;;;;;;6.40;5.80;;;;;;;;;;5022836;28;20221;-89
2023/01/30 11:11:43;;;;;;;5.60;5.10;;;;;;;;;;4992576;28;20212;-89
2023/01/30 11:14:11;;;;;;;7.27;5.93;;;;;;;;;;4991757;28;20220;-88
2023/01/30 11:16:43;;;;;;;5.40;4.90;;;;;;;;;;5000697;28;20215;-89
2023/01/30 11:19:10;;;;;;;8.27;5.60;;;;;;;;;;5094636;27;20201;-87
2023/01/30 11:21:41;;;;;;;5.30;4.90;;;;;;;;;;5094993;28;20202;-89
2023/01/30 11:24:16;;;;;;;4.33;3.93;;;;;;;;;;5093797;27;20197;-90
2023/01/30 11:26:43;;;;;;;6.77;5.87;;;;;;;;;;5088261;28;20752;-89
2023/01/30 11:29:24;;;;;;;6.63;5.93;;;;;;;;;;4992739;28;20211;-89
2023/01/30 11:31:52;;;;;;;5.23;4.67;;;;;;;;;;4992869;28;20208;-89
2023/01/30 11:34:20;;;;;;;4.40;4.00;;;;;;;;;;4991274;28;20236;-89
2023/01/30 11:36:47;;;;;;;7.97;5.10;;;;;;;;;;4992759;28;20675;-91
2023/01/30 11:39:23;;;;;;;6.03;4.03;;;;;;;;;;4990387;28;20243;-90
2023/01/30 11:42:03;;;;;;;5.00;4.50;;;;;;;;;;4992241;28;20204;-88
2023/01/30 11:44:31;;;;;;;5.00;4.43;;;;;;;;;;5093949;27;20228;-88
2023/01/30 11:46:59;;;;;;;5.70;5.13;;;;;;;;;;5094622;28;20205;-87
2023/01/30 11:49:29;;;;;;;5.67;4.97;;;;;;;;;;5094530;27;20592;-88
2023/01/30 11:51:56;;;;;;;5.63;4.93;;;;;;;;;;5093454;28;20213;-89
2023/01/30 11:54:29;;;;;;;4.87;4.43;;;;;;;;;;5095398;27;20238;-86
2023/01/30 11:56:57;;;;;;;5.40;4.90;;;;;;;;;;5094936;28;20207;-91
2023/01/30 11:59:26;;;;;;;4.07;3.70;;;;;;;;;;5094096;27;20717;-89
2023/01/30 12:02:16;;;;;;;6.17;5.57;;;;;;;;;;5047790;28;20206;-89
2023/01/30 12:04:44;;;;;;;4.57;4.17;;;;;;;;;;4985913;28;20232;-89
2023/01/30 12:07:17;;;;;;;5.73;5.13;;;;;;;;;;5011939;28;20205;-89
2023/01/30 12:09:49;;;;;;;5.67;5.17;;;;;;;;;;5011207;28;20238;-90
2023/01/30 12:12:33;;;;;;;5.37;4.57;;;;;;;;;;4998629;28;20210;-90
2023/01/30 12:15:15;;;;;;;4.87;4.53;;;;;;;;;;4991891;28;20240;-89
2023/01/30 12:17:47;;;;;;;4.53;4.13;;;;;;;;;;5009111;28;20243;-90
2023/01/30 12:20:18;;;;;;;5.63;5.10;;;;;;;;;;5100079;27;20230;-90
2023/01/30 12:22:48;;;;;;;4.70;4.30;;;;;;;;;;5094992;28;20198;-89
2023/01/30 12:25:19;;;;;;;5.73;4.90;;;;;;;;;;5094552;27;20228;-90
2023/01/30 12:27:51;;;;;;;4.37;3.97;;;;;;;;;;5092945;28;20193;-89
2023/01/30 12:30:21;;;;;;;4.60;4.20;;;;;;;;;;5094227;27;20318;-90
2023/01/30 12:32:49;;;;;;;5.17;4.40;;;;;;;;;;5037760;28;20589;-90
2023/01/30 12:35:17;;;;;;;4.07;3.67;;;;;;;;;;4990595;28;20242;-89
2023/01/30 12:37:49;;;;;;;9.30;3.30;;;;;;;;;;5033026;28;20207;-90
2023/01/30 12:40:25;;;;;;;5.00;4.50;;;;;;;;;;5095885;27;20739;-91
2023/01/30 12:42:59;;;;;;;5.33;3.97;;;;;;;;;;5094284;28;20189;-90
2023/01/30 12:45:27;;;;;;;3.67;3.37;;;;;;;;;;5093973;27;20235;-90
2023/01/30 12:48:05;;;;;;;4.27;3.83;;;;;;;;;;5052698;28;20215;-90
2023/01/30 12:50:37;;;;;;;3.73;3.43;;;;;;;;;;4990754;28;20246;-90
2023/01/30 12:53:16;;;;;;;3.87;3.57;;;;;;;;;;4984131;28;20197;-90
2023/01/30 12:55:49;;;;;;;3.67;3.37;;;;;;;;;;4986930;28;20246;-90
2023/01/30 12:58:19;;;;;;;3.87;3.67;;;;;;;;;;5051566;28;20612;-90
2023/01/30 13:00:56;;;;;;;4.17;3.77;;;;;;;;;;5051548;28;20770;-90
2023/01/30 13:03:27;;;;;;;4.20;3.80;;;;;;;;;;5094664;28;20202;-92
2023/01/30 13:06:07;;;;;;;4.43;3.83;;;;;;;;;;4980264;28;20776;-90
2023/01/30 13:08:41;;;;;;;3.87;3.57;;;;;;;;;;5019125;28;20208;-90
2023/01/30 13:11:17;;;;;;;3.80;3.40;;;;;;;;;;5041916;27;20275;-90
2023/01/30 13:13:49;;;;;;;4.47;4.07;;;;;;;;;;5076273;28;20266;-89
2023/01/30 13:16:21;;;;;;;4.63;3.63;;;;;;;;;;5094094;27;20323;-90
2023/01/30 13:18:51;;;;;;;4.53;4.00;;;;;;;;;;5093181;28;20223;-90
2023/01/30 13:21:21;;;;;;;5.37;4.23;;;;;;;;;;5093496;28;20591;-90
2023/01/30 13:23:58;;;;;;;6.13;4.77;;;;;;;;;;5094186;28;20208;-90
2023/01/30 13:26:30;;;;;;;3.53;3.20;;;;;;;;;;5095249;28;20226;-89
2023/01/30 13:28:58;;;;;;;4.50;4.10;;;;;;;;;;5016116;28;20285;-90
2023/01/30 13:31:28;;;;;;;4.77;4.37;;;;;;;;;;4991706;28;20203;-91
2023/01/30 13:34:03;;;;;;;3.60;3.30;;;;;;;;;;4990149;28;20220;-90
2023/01/30 13:36:34;;;;;;;3.80;3.53;;;;;;;;;;4992074;28;20199;-89
2023/01/30 13:39:04;;;;;;;3.60;3.30;;;;;;;;;;5054955;27;20200;-90
2023/01/30 13:41:36;;;;;;;4.07;3.67;;;;;;;;;;4995277;28;20211;-90
2023/01/30 13:44:06;;;;;;;4.27;3.87;;;;;;;;;;4990828;28;20214;-90
2023/01/30 13:46:37;;;;;;;4.43;3.43;;;;;;;;;;5068696;28;20196;-89
2023/01/30 13:49:09;;;;;;;4.37;3.97;;;;;;;;;;5034052;28;20218;-91
2023/01/30 13:51:43;;;;;;;4.47;3.77;;;;;;;;;;5028533;28;20299;-91
2023/01/30 13:54:18;;;;;;;4.10;3.63;;;;;;;;;;4971124;28;20259;-87
2023/01/30 13:56:49;;;;;;;4.97;4.10;;;;;;;;;;4971464;28;20542;-88
2023/01/30 13:59:21;;;;;;;5.60;4.90;;;;;;;;;;4971124;28;20254;-87
2023/01/30 14:02:08;;;;;;;6.87;4.77;;;;;;;;;;4971210;28;20219;-87
2023/01/30 14:04:52;;;;;;;4.67;3.97;;;;;;;;;;4970772;28;20297;-86
2023/01/30 14:07:22;;;;;;;4.80;4.40;;;;;;;;;;4971812;28;20427;-87
2023/01/30 14:09:51;;;;;;;4.07;3.73;;;;;;;;;;4987079;28;20886;-87
2023/01/30 14:12:20;;;;;;;4.07;3.77;;;;;;;;;;4990489;28;20222;-87
2023/01/30 14:15:05;;;;;;;4.20;3.87;;;;;;;;;;4989640;28;20240;-87
2023/01/30 14:17:33;;;;;;;4.20;3.80;;;;;;;;;;4990421;28;20668;-86
2023/01/30 14:20:05;;;;;;;4.63;4.23;;;;;;;;;;4989976;28;20301;-89
2023/01/30 14:22:37;;;;;;;5.30;4.33;;;;;;;;;;4991021;28;20212;-91
2023/01/30 14:25:23;;;;;;;5.13;3.57;;;;;;;;;;4990436;28;20602;-89
2023/01/30 14:27:52;;;;;;;4.90;4.40;;;;;;;;;;4990959;28;20667;-89
2023/01/30 14:30:36;;;;;;;5.30;4.10;;;;;;;;;;5040644;27;20239;-90
2023/01/30 14:33:04;;;;;;;6.37;3.87;;;;;;;;;;5088517;28;20580;-90
2023/01/30 14:35:33;;;;;;;5.73;4.40;;;;;;;;;;5064129;23;20235;-91
2023/01/30 14:38:18;;;;;;;5.03;4.23;;;;;;;;;;4992340;28;20210;-89
2023/01/30 14:40:46;;;;;;;5.43;4.37;;;;;;;;;;5077955;28;20243;-95
2023/01/30 14:43:41;;;;;;;5.47;4.67;;;;;;;;;;5078495;28;20577;-95
2023/01/30 14:46:33;;;;;;;7.10;4.60;;;;;;;;;;5077286;28;20237;-94
2023/01/30 14:49:04;;;;;;;5.23;4.70;;;;;;;;;;5076232;28;20208;-91
2023/01/30 14:51:34;;;;;;;7.10;4.63;;;;;;;;;;4980391;28;20207;-91